OK88 weather

CLOSED Silverwood Ultralightport
Broken Arrow, Oklahoma, United States

Public forecast

Using degrees Fahrenheit for public forecast. Weather courtesy of forecast.io.

METAR (pilot weather report)

Closest report is Richard Lloyd Jones Jr Airport, 7.1 nm (13.1 km) WNW. Retrieved 2019/04/20 03:53 UTC (15 minutes ago):

KRVS 200353Z AUTO 00000KT 10SM CLR 11/04 A3001 RMK AO2 SLP165 T01060039

TAF (pilot weather forecast)

Forecast is more than 12 hours old.

Closest forecast is Richard Lloyd Jones Jr Airport, 7.1 nm (13.1 km) WNW. Retrieved 2019/04/19 00:22 UTC (1 day ago):

TAF KRVS 192320Z 2000/2024 33012KT P6SM SKC FM200100 VRB02KT P6SM SKC FM201600 19008KT P6SM SKC